sensor_id;sensor_type;location;lat;lon;timestamp;P1;durP1;ratioP1;P2;durP2;ratioP2
57551;SDS011;43379;48.160;14.036;2023-03-21T00:02:16;5.60;;;5.17;;
57551;SDS011;43379;48.160;14.036;2023-03-21T00:04:41;5.90;;;5.50;;
57551;SDS011;43379;48.160;14.036;2023-03-21T00:07:07;5.67;;;5.10;;
57551;SDS011;43379;48.160;14.036;2023-03-21T00:09:33;4.90;;;4.53;;
57551;SDS011;43379;48.160;14.036;2023-03-21T00:11:58;5.53;;;5.13;;
57551;SDS011;43379;48.160;14.036;2023-03-21T00:14:25;5.13;;;4.77;;
57551;SDS011;43379;48.160;14.036;2023-03-21T00:16:54;5.50;;;4.97;;
57551;SDS011;43379;48.160;14.036;2023-03-21T00:19:20;5.53;;;5.00;;
57551;SDS011;43379;48.160;14.036;2023-03-21T00:21:48;6.87;;;5.30;;
57551;SDS011;43379;48.160;14.036;2023-03-21T00:24:16;5.03;;;4.63;;
57551;SDS011;43379;48.160;14.036;2023-03-21T00:26:42;5.57;;;5.13;;
57551;SDS011;43379;48.160;14.036;2023-03-21T00:29:08;7.67;;;5.67;;
57551;SDS011;43379;48.160;14.036;2023-03-21T00:31:33;6.73;;;5.07;;
57551;SDS011;43379;48.160;14.036;2023-03-21T00:33:59;5.97;;;5.47;;
57551;SDS011;43379;48.160;14.036;2023-03-21T00:36:26;5.60;;;5.10;;
57551;SDS011;43379;48.160;14.036;2023-03-21T00:38:52;6.00;;;5.60;;
57551;SDS011;43379;48.160;14.036;2023-03-21T00:41:18;5.90;;;5.50;;
57551;SDS011;43379;48.160;14.036;2023-03-21T00:43:43;6.20;;;5.70;;
57551;SDS011;43379;48.160;14.036;2023-03-21T00:46:10;6.30;;;5.77;;
57551;SDS011;43379;48.160;14.036;2023-03-21T00:48:36;5.90;;;5.50;;
57551;SDS011;43379;48.160;14.036;2023-03-21T00:51:01;5.90;;;5.50;;
57551;SDS011;43379;48.160;14.036;2023-03-21T00:53:36;6.07;;;5.47;;
57551;SDS011;43379;48.160;14.036;2023-03-21T00:56:01;6.10;;;5.60;;
57551;SDS011;43379;48.160;14.036;2023-03-21T00:58:27;6.47;;;5.97;;
57551;SDS011;43379;48.160;14.036;2023-03-21T01:00:53;5.70;;;5.20;;
57551;SDS011;43379;48.160;14.036;2023-03-21T01:03:18;6.80;;;6.20;;
57551;SDS011;43379;48.160;14.036;2023-03-21T01:05:45;6.03;;;5.63;;
57551;SDS011;43379;48.160;14.036;2023-03-21T01:08:28;6.67;;;6.17;;
57551;SDS011;43379;48.160;14.036;2023-03-21T01:10:55;8.67;;;6.47;;
57551;SDS011;43379;48.160;14.036;2023-03-21T01:13:25;5.20;;;4.80;;
57551;SDS011;43379;48.160;14.036;2023-03-21T01:15:52;6.63;;;6.07;;
57551;SDS011;43379;48.160;14.036;2023-03-21T01:18:20;6.23;;;5.63;;
57551;SDS011;43379;48.160;14.036;2023-03-21T01:20:49;5.60;;;5.20;;
57551;SDS011;43379;48.160;14.036;2023-03-21T01:23:15;6.40;;;5.90;;
57551;SDS011;43379;48.160;14.036;2023-03-21T01:25:41;6.37;;;5.87;;
57551;SDS011;43379;48.160;14.036;2023-03-21T01:28:07;6.20;;;5.70;;
57551;SDS011;43379;48.160;14.036;2023-03-21T01:30:33;6.20;;;5.70;;
57551;SDS011;43379;48.160;14.036;2023-03-21T01:32:59;6.77;;;6.30;;
57551;SDS011;43379;48.160;14.036;2023-03-21T01:35:25;6.20;;;5.70;;
57551;SDS011;43379;48.160;14.036;2023-03-21T01:37:50;6.40;;;5.80;;
57551;SDS011;43379;48.160;14.036;2023-03-21T01:40:17;5.87;;;5.37;;
57551;SDS011;43379;48.160;14.036;2023-03-21T01:42:45;6.20;;;5.70;;
57551;SDS011;43379;48.160;14.036;2023-03-21T01:48:23;6.53;;;5.90;;
57551;SDS011;43379;48.160;14.036;2023-03-21T01:50:51;5.50;;;5.10;;
57551;SDS011;43379;48.160;14.036;2023-03-21T01:53:18;6.53;;;6.00;;
57551;SDS011;43379;48.160;14.036;2023-03-21T01:55:46;6.20;;;5.70;;
57551;SDS011;43379;48.160;14.036;2023-03-21T01:58:13;7.60;;;6.90;;
57551;SDS011;43379;48.160;14.036;2023-03-21T02:00:42;6.30;;;5.80;;
57551;SDS011;43379;48.160;14.036;2023-03-21T02:03:09;6.50;;;5.70;;
57551;SDS011;43379;48.160;14.036;2023-03-21T02:08:19;6.73;;;6.27;;
57551;SDS011;43379;48.160;14.036;2023-03-21T02:10:47;7.00;;;6.30;;
57551;SDS011;43379;48.160;14.036;2023-03-21T02:13:14;6.73;;;6.10;;
57551;SDS011;43379;48.160;14.036;2023-03-21T02:15:41;6.67;;;6.07;;
57551;SDS011;43379;48.160;14.036;2023-03-21T02:21:10;6.50;;;5.97;;
57551;SDS011;43379;48.160;14.036;2023-03-21T02:35:53;6.33;;;5.83;;
57551;SDS011;43379;48.160;14.036;2023-03-21T02:38:26;6.50;;;5.90;;
57551;SDS011;43379;48.160;14.036;2023-03-21T02:43:35;6.40;;;5.63;;
57551;SDS011;43379;48.160;14.036;2023-03-21T02:46:18;7.20;;;6.60;;
57551;SDS011;43379;48.160;14.036;2023-03-21T02:49:06;6.90;;;6.40;;
57551;SDS011;43379;48.160;14.036;2023-03-21T02:51:38;6.47;;;5.83;;
57551;SDS011;43379;48.160;14.036;2023-03-21T02:54:07;6.30;;;5.80;;
57551;SDS011;43379;48.160;14.036;2023-03-21T02:56:36;6.23;;;5.63;;
57551;SDS011;43379;48.160;14.036;2023-03-21T02:59:04;6.60;;;6.00;;
57551;SDS011;43379;48.160;14.036;2023-03-21T03:01:31;5.80;;;5.40;;
57551;SDS011;43379;48.160;14.036;2023-03-21T03:03:58;6.03;;;5.53;;
57551;SDS011;43379;48.160;14.036;2023-03-21T03:06:28;6.70;;;5.87;;
57551;SDS011;43379;48.160;14.036;2023-03-21T03:11:42;6.23;;;5.63;;
57551;SDS011;43379;48.160;14.036;2023-03-21T03:20:07;7.33;;;6.10;;
57551;SDS011;43379;48.160;14.036;2023-03-21T03:22:40;7.30;;;6.70;;
57551;SDS011;43379;48.160;14.036;2023-03-21T03:25:20;7.67;;;7.07;;
57551;SDS011;43379;48.160;14.036;2023-03-21T03:27:55;6.37;;;5.87;;
57551;SDS011;43379;48.160;14.036;2023-03-21T03:30:23;6.63;;;6.13;;
57551;SDS011;43379;48.160;14.036;2023-03-21T03:32:53;5.90;;;5.10;;
57551;SDS011;43379;48.160;14.036;2023-03-21T03:35:23;6.63;;;6.07;;
57551;SDS011;43379;48.160;14.036;2023-03-21T03:37:54;6.47;;;6.00;;
57551;SDS011;43379;48.160;14.036;2023-03-21T03:42:50;9.00;;;8.20;;
57551;SDS011;43379;48.160;14.036;2023-03-21T03:45:18;8.27;;;7.67;;
57551;SDS011;43379;48.160;14.036;2023-03-21T03:47:51;9.57;;;8.67;;
57551;SDS011;43379;48.160;14.036;2023-03-21T03:50:29;8.90;;;7.93;;
57551;SDS011;43379;48.160;14.036;2023-03-21T03:53:18;8.83;;;7.43;;
57551;SDS011;43379;48.160;14.036;2023-03-21T03:55:51;6.43;;;5.93;;
57551;SDS011;43379;48.160;14.036;2023-03-21T03:58:20;6.67;;;6.10;;
57551;SDS011;43379;48.160;14.036;2023-03-21T04:00:47;7.60;;;7.00;;
57551;SDS011;43379;48.160;14.036;2023-03-21T04:03:14;8.27;;;7.50;;
57551;SDS011;43379;48.160;14.036;2023-03-21T04:05:40;10.33;;;9.40;;
57551;SDS011;43379;48.160;14.036;2023-03-21T04:08:06;12.97;;;11.67;;
57551;SDS011;43379;48.160;14.036;2023-03-21T04:10:32;14.40;;;12.90;;
57551;SDS011;43379;48.160;14.036;2023-03-21T04:12:58;14.37;;;12.67;;
57551;SDS011;43379;48.160;14.036;2023-03-21T04:15:24;14.57;;;13.17;;
57551;SDS011;43379;48.160;14.036;2023-03-21T04:17:50;12.57;;;11.40;;
57551;SDS011;43379;48.160;14.036;2023-03-21T04:20:15;11.40;;;10.40;;
57551;SDS011;43379;48.160;14.036;2023-03-21T04:22:41;12.23;;;11.13;;
57551;SDS011;43379;48.160;14.036;2023-03-21T04:25:07;12.43;;;11.40;;
57551;SDS011;43379;48.160;14.036;2023-03-21T04:27:33;11.73;;;10.73;;
57551;SDS011;43379;48.160;14.036;2023-03-21T04:29:59;10.20;;;9.40;;
57551;SDS011;43379;48.160;14.036;2023-03-21T04:32:25;11.20;;;8.50;;
57551;SDS011;43379;48.160;14.036;2023-03-21T04:34:51;8.47;;;7.77;;
57551;SDS011;43379;48.160;14.036;2023-03-21T04:37:18;7.90;;;7.30;;
57551;SDS011;43379;48.160;14.036;2023-03-21T04:39:45;8.00;;;7.37;;
57551;SDS011;43379;48.160;14.036;2023-03-21T04:42:12;6.80;;;6.30;;
57551;SDS011;43379;48.160;14.036;2023-03-21T04:44:39;5.97;;;5.57;;
57551;SDS011;43379;48.160;14.036;2023-03-21T04:47:05;7.00;;;6.50;;
57551;SDS011;43379;48.160;14.036;2023-03-21T04:49:31;7.57;;;6.13;;
57551;SDS011;43379;48.160;14.036;2023-03-21T04:51:57;6.47;;;5.97;;
57551;SDS011;43379;48.160;14.036;2023-03-21T04:54:23;5.90;;;5.40;;
57551;SDS011;43379;48.160;14.036;2023-03-21T04:56:49;6.20;;;5.60;;
57551;SDS011;43379;48.160;14.036;2023-03-21T04:59:16;6.57;;;6.07;;
57551;SDS011;43379;48.160;14.036;2023-03-21T05:01:42;5.47;;;5.07;;
57551;SDS011;43379;48.160;14.036;2023-03-21T05:04:09;6.10;;;5.50;;
57551;SDS011;43379;48.160;14.036;2023-03-21T05:06:36;5.87;;;5.47;;
57551;SDS011;43379;48.160;14.036;2023-03-21T05:09:03;6.50;;;5.77;;
57551;SDS011;43379;48.160;14.036;2023-03-21T05:11:30;5.70;;;5.20;;
57551;SDS011;43379;48.160;14.036;2023-03-21T05:13:57;6.03;;;5.60;;
57551;SDS011;43379;48.160;14.036;2023-03-21T05:16:23;6.27;;;5.77;;
57551;SDS011;43379;48.160;14.036;2023-03-21T05:18:51;6.53;;;5.93;;
57551;SDS011;43379;48.160;14.036;2023-03-21T05:21:19;5.77;;;5.27;;
57551;SDS011;43379;48.160;14.036;2023-03-21T05:23:45;6.63;;;5.83;;
57551;SDS011;43379;48.160;14.036;2023-03-21T05:26:18;6.60;;;6.00;;
57551;SDS011;43379;48.160;14.036;2023-03-21T05:28:45;6.60;;;6.03;;
57551;SDS011;43379;48.160;14.036;2023-03-21T05:31:12;6.90;;;6.40;;
57551;SDS011;43379;48.160;14.036;2023-03-21T05:33:42;6.87;;;6.17;;
57551;SDS011;43379;48.160;14.036;2023-03-21T05:36:09;6.40;;;5.90;;
57551;SDS011;43379;48.160;14.036;2023-03-21T05:38:35;6.87;;;6.37;;
57551;SDS011;43379;48.160;14.036;2023-03-21T05:41:01;7.10;;;6.60;;
57551;SDS011;43379;48.160;14.036;2023-03-21T05:43:26;7.23;;;6.53;;
57551;SDS011;43379;48.160;14.036;2023-03-21T05:45:52;7.37;;;6.70;;
57551;SDS011;43379;48.160;14.036;2023-03-21T05:48:18;7.43;;;6.43;;
57551;SDS011;43379;48.160;14.036;2023-03-21T05:50:44;7.93;;;6.93;;
57551;SDS011;43379;48.160;14.036;2023-03-21T05:53:10;8.40;;;7.60;;
57551;SDS011;43379;48.160;14.036;2023-03-21T05:55:36;6.93;;;6.13;;
57551;SDS011;43379;48.160;14.036;2023-03-21T05:58:02;7.07;;;6.50;;
57551;SDS011;43379;48.160;14.036;2023-03-21T06:00:28;7.57;;;6.93;;
57551;SDS011;43379;48.160;14.036;2023-03-21T06:02:54;6.63;;;6.03;;
57551;SDS011;43379;48.160;14.036;2023-03-21T06:05:20;7.13;;;6.53;;
57551;SDS011;43379;48.160;14.036;2023-03-21T06:07:45;6.77;;;6.27;;
57551;SDS011;43379;48.160;14.036;2023-03-21T06:10:11;8.30;;;6.93;;
57551;SDS011;43379;48.160;14.036;2023-03-21T06:12:37;7.40;;;6.90;;
57551;SDS011;43379;48.160;14.036;2023-03-21T06:15:03;7.63;;;6.93;;
57551;SDS011;43379;48.160;14.036;2023-03-21T06:17:30;8.57;;;7.80;;
57551;SDS011;43379;48.160;14.036;2023-03-21T06:19:56;7.87;;;7.27;;
57551;SDS011;43379;48.160;14.036;2023-03-21T06:22:24;8.73;;;7.97;;
57551;SDS011;43379;48.160;14.036;2023-03-21T06:24:50;8.37;;;7.77;;
57551;SDS011;43379;48.160;14.036;2023-03-21T06:27:16;8.30;;;7.70;;
57551;SDS011;43379;48.160;14.036;2023-03-21T06:29:42;8.27;;;7.50;;
57551;SDS011;43379;48.160;14.036;2023-03-21T06:32:10;9.40;;;7.80;;
57551;SDS011;43379;48.160;14.036;2023-03-21T06:34:35;8.60;;;7.80;;
57551;SDS011;43379;48.160;14.036;2023-03-21T06:37:01;8.63;;;7.83;;
57551;SDS011;43379;48.160;14.036;2023-03-21T06:39:28;10.97;;;9.97;;
57551;SDS011;43379;48.160;14.036;2023-03-21T06:41:55;9.27;;;8.13;;
57551;SDS011;43379;48.160;14.036;2023-03-21T06:44:21;7.40;;;6.90;;
57551;SDS011;43379;48.160;14.036;2023-03-21T06:46:48;7.27;;;6.50;;
57551;SDS011;43379;48.160;14.036;2023-03-21T06:49:14;7.00;;;6.40;;
57551;SDS011;43379;48.160;14.036;2023-03-21T06:51:40;6.60;;;6.10;;
57551;SDS011;43379;48.160;14.036;2023-03-21T06:54:06;6.70;;;6.10;;
57551;SDS011;43379;48.160;14.036;2023-03-21T06:56:32;9.20;;;6.40;;
57551;SDS011;43379;48.160;14.036;2023-03-21T06:58:58;7.27;;;6.73;;
57551;SDS011;43379;48.160;14.036;2023-03-21T07:01:23;6.63;;;6.03;;
57551;SDS011;43379;48.160;14.036;2023-03-21T07:03:51;6.30;;;5.70;;
57551;SDS011;43379;48.160;14.036;2023-03-21T07:06:21;6.30;;;5.53;;
57551;SDS011;43379;48.160;14.036;2023-03-21T07:08:50;6.33;;;5.70;;
57551;SDS011;43379;48.160;14.036;2023-03-21T07:11:17;8.00;;;6.17;;
57551;SDS011;43379;48.160;14.036;2023-03-21T07:13:43;6.97;;;6.10;;
57551;SDS011;43379;48.160;14.036;2023-03-21T07:16:09;5.87;;;5.23;;
57551;SDS011;43379;48.160;14.036;2023-03-21T07:18:34;6.10;;;5.50;;
57551;SDS011;43379;48.160;14.036;2023-03-21T07:21:01;7.00;;;4.80;;
57551;SDS011;43379;48.160;14.036;2023-03-21T07:23:27;11.53;;;5.20;;
57551;SDS011;43379;48.160;14.036;2023-03-21T07:25:53;4.60;;;4.20;;
57551;SDS011;43379;48.160;14.036;2023-03-21T07:28:19;4.90;;;4.50;;
57551;SDS011;43379;48.160;14.036;2023-03-21T07:30:50;6.80;;;6.17;;
57551;SDS011;43379;48.160;14.036;2023-03-21T07:33:21;6.47;;;4.87;;
57551;SDS011;43379;48.160;14.036;2023-03-21T07:35:48;5.90;;;5.40;;
57551;SDS011;43379;48.160;14.036;2023-03-21T07:38:15;9.50;;;4.77;;
57551;SDS011;43379;48.160;14.036;2023-03-21T07:40:41;5.00;;;4.60;;
57551;SDS011;43379;48.160;14.036;2023-03-21T07:43:07;5.03;;;4.53;;
57551;SDS011;43379;48.160;14.036;2023-03-21T07:45:33;4.70;;;4.40;;
57551;SDS011;43379;48.160;14.036;2023-03-21T07:47:59;5.40;;;4.90;;
57551;SDS011;43379;48.160;14.036;2023-03-21T07:50:25;4.73;;;4.43;;
57551;SDS011;43379;48.160;14.036;2023-03-21T07:52:50;5.20;;;4.80;;
57551;SDS011;43379;48.160;14.036;2023-03-21T07:55:16;6.93;;;5.03;;
57551;SDS011;43379;48.160;14.036;2023-03-21T07:57:42;5.60;;;5.17;;
57551;SDS011;43379;48.160;14.036;2023-03-21T08:00:09;5.33;;;4.93;;
57551;SDS011;43379;48.160;14.036;2023-03-21T08:02:35;5.33;;;4.93;;
57551;SDS011;43379;48.160;14.036;2023-03-21T08:05:01;5.50;;;5.10;;
57551;SDS011;43379;48.160;14.036;2023-03-21T08:07:28;5.50;;;5.10;;
57551;SDS011;43379;48.160;14.036;2023-03-21T08:09:54;6.60;;;6.10;;
57551;SDS011;43379;48.160;14.036;2023-03-21T08:12:21;5.30;;;4.90;;
57551;SDS011;43379;48.160;14.036;2023-03-21T08:14:47;5.37;;;4.97;;
57551;SDS011;43379;48.160;14.036;2023-03-21T08:17:12;5.80;;;5.20;;
57551;SDS011;43379;48.160;14.036;2023-03-21T08:19:38;5.90;;;5.30;;
57551;SDS011;43379;48.160;14.036;2023-03-21T08:22:04;5.60;;;5.20;;
57551;SDS011;43379;48.160;14.036;2023-03-21T08:24:30;5.80;;;5.40;;
57551;SDS011;43379;48.160;14.036;2023-03-21T08:26:58;4.50;;;4.10;;
57551;SDS011;43379;48.160;14.036;2023-03-21T08:29:24;4.70;;;4.37;;
57551;SDS011;43379;48.160;14.036;2023-03-21T08:31:51;4.83;;;4.37;;
57551;SDS011;43379;48.160;14.036;2023-03-21T08:34:16;4.83;;;4.43;;
57551;SDS011;43379;48.160;14.036;2023-03-21T08:36:43;4.20;;;3.90;;
57551;SDS011;43379;48.160;14.036;2023-03-21T08:39:11;3.63;;;3.37;;
57551;SDS011;43379;48.160;14.036;2023-03-21T08:41:36;4.50;;;3.80;;
57551;SDS011;43379;48.160;14.036;2023-03-21T08:44:03;4.30;;;4.00;;
57551;SDS011;43379;48.160;14.036;2023-03-21T08:46:31;5.07;;;4.57;;
57551;SDS011;43379;48.160;14.036;2023-03-21T08:48:57;4.87;;;4.47;;
57551;SDS011;43379;48.160;14.036;2023-03-21T08:51:22;5.43;;;4.60;;
57551;SDS011;43379;48.160;14.036;2023-03-21T08:53:48;4.20;;;3.90;;
57551;SDS011;43379;48.160;14.036;2023-03-21T08:56:15;4.67;;;4.33;;
57551;SDS011;43379;48.160;14.036;2023-03-21T08:58:41;4.50;;;4.10;;
57551;SDS011;43379;48.160;14.036;2023-03-21T09:01:08;4.20;;;3.77;;
57551;SDS011;43379;48.160;14.036;2023-03-21T09:03:36;4.60;;;4.20;;
57551;SDS011;43379;48.160;14.036;2023-03-21T09:06:02;4.60;;;4.10;;
57551;SDS011;43379;48.160;14.036;2023-03-21T09:08:28;4.10;;;3.80;;
57551;SDS011;43379;48.160;14.036;2023-03-21T09:10:55;4.63;;;4.23;;
57551;SDS011;43379;48.160;14.036;2023-03-21T09:13:21;4.03;;;3.73;;
57551;SDS011;43379;48.160;14.036;2023-03-21T09:15:48;4.00;;;3.70;;
57551;SDS011;43379;48.160;14.036;2023-03-21T09:18:14;4.13;;;3.80;;
57551;SDS011;43379;48.160;14.036;2023-03-21T09:20:42;4.20;;;4.00;;
57551;SDS011;43379;48.160;14.036;2023-03-21T09:23:10;4.87;;;4.47;;
57551;SDS011;43379;48.160;14.036;2023-03-21T09:25:38;4.00;;;3.67;;
57551;SDS011;43379;48.160;14.036;2023-03-21T09:28:04;5.27;;;4.30;;
57551;SDS011;43379;48.160;14.036;2023-03-21T09:30:34;4.30;;;3.97;;
57551;SDS011;43379;48.160;14.036;2023-03-21T09:33:01;5.80;;;4.07;;
57551;SDS011;43379;48.160;14.036;2023-03-21T09:35:30;4.30;;;3.90;;
57551;SDS011;43379;48.160;14.036;2023-03-21T09:37:56;4.13;;;3.80;;
57551;SDS011;43379;48.160;14.036;2023-03-21T09:46:07;5.00;;;4.50;;
57551;SDS011;43379;48.160;14.036;2023-03-21T09:51:35;5.17;;;4.33;;
57551;SDS011;43379;48.160;14.036;2023-03-21T09:56:44;6.47;;;3.97;;
57551;SDS011;43379;48.160;14.036;2023-03-21T10:05:08;4.93;;;3.80;;
57551;SDS011;43379;48.160;14.036;2023-03-21T10:10:23;4.80;;;4.37;;
57551;SDS011;43379;48.160;14.036;2023-03-21T10:12:53;4.50;;;4.10;;
57551;SDS011;43379;48.160;14.036;2023-03-21T10:15:21;4.90;;;4.47;;
57551;SDS011;43379;48.160;14.036;2023-03-21T10:17:59;4.37;;;4.00;;
57551;SDS011;43379;48.160;14.036;2023-03-21T10:22:57;4.80;;;4.40;;
57551;SDS011;43379;48.160;14.036;2023-03-21T10:25:30;5.20;;;4.73;;
57551;SDS011;43379;48.160;14.036;2023-03-21T10:27:56;4.63;;;4.33;;
57551;SDS011;43379;48.160;14.036;2023-03-21T10:33:05;5.33;;;4.93;;
57551;SDS011;43379;48.160;14.036;2023-03-21T10:35:35;4.87;;;4.47;;
57551;SDS011;43379;48.160;14.036;2023-03-21T10:38:03;5.27;;;4.87;;
57551;SDS011;43379;48.160;14.036;2023-03-21T10:40:30;5.07;;;4.70;;
57551;SDS011;43379;48.160;14.036;2023-03-21T10:42:58;5.70;;;5.30;;
57551;SDS011;43379;48.160;14.036;2023-03-21T10:45:46;5.27;;;4.87;;
57551;SDS011;43379;48.160;14.036;2023-03-21T10:48:12;6.13;;;4.90;;
57551;SDS011;43379;48.160;14.036;2023-03-21T10:50:38;4.33;;;4.03;;
57551;SDS011;43379;48.160;14.036;2023-03-21T10:53:05;5.77;;;5.27;;
57551;SDS011;43379;48.160;14.036;2023-03-21T10:55:53;4.30;;;4.00;;
57551;SDS011;43379;48.160;14.036;2023-03-21T10:58:26;5.57;;;5.07;;
57551;SDS011;43379;48.160;14.036;2023-03-21T11:00:58;4.83;;;4.43;;
57551;SDS011;43379;48.160;14.036;2023-03-21T11:03:31;4.70;;;4.40;;
57551;SDS011;43379;48.160;14.036;2023-03-21T11:06:04;5.83;;;5.40;;
57551;SDS011;43379;48.160;14.036;2023-03-21T11:08:37;5.47;;;4.80;;
57551;SDS011;43379;48.160;14.036;2023-03-21T11:11:18;6.57;;;5.17;;
57551;SDS011;43379;48.160;14.036;2023-03-21T11:14:06;5.73;;;5.23;;
57551;SDS011;43379;48.160;14.036;2023-03-21T11:16:43;5.27;;;4.80;;
57551;SDS011;43379;48.160;14.036;2023-03-21T11:19:19;5.53;;;5.03;;
57551;SDS011;43379;48.160;14.036;2023-03-21T11:21:55;5.80;;;5.40;;
57551;SDS011;43379;48.160;14.036;2023-03-21T11:24:22;5.93;;;5.10;;
57551;SDS011;43379;48.160;14.036;2023-03-21T11:26:52;5.67;;;5.20;;
57551;SDS011;43379;48.160;14.036;2023-03-21T11:29:36;5.73;;;5.33;;
57551;SDS011;43379;48.160;14.036;2023-03-21T11:32:09;6.17;;;5.10;;
57551;SDS011;43379;48.160;14.036;2023-03-21T11:34:40;5.00;;;4.60;;
57551;SDS011;43379;48.160;14.036;2023-03-21T11:45:26;6.50;;;6.03;;
57551;SDS011;43379;48.160;14.036;2023-03-21T11:47:53;5.60;;;5.20;;
57551;SDS011;43379;48.160;14.036;2023-03-21T11:50:24;8.00;;;6.53;;
57551;SDS011;43379;48.160;14.036;2023-03-21T12:03:52;6.87;;;6.27;;
57551;SDS011;43379;48.160;14.036;2023-03-21T12:12:04;6.23;;;5.70;;
57551;SDS011;43379;48.160;14.036;2023-03-21T12:14:46;6.57;;;6.07;;
57551;SDS011;43379;48.160;14.036;2023-03-21T12:20:25;6.20;;;5.60;;
57551;SDS011;43379;48.160;14.036;2023-03-21T12:39:54;5.50;;;5.00;;
57551;SDS011;43379;48.160;14.036;2023-03-21T12:43:09;5.80;;;5.23;;
57551;SDS011;43379;48.160;14.036;2023-03-21T12:45:30;6.20;;;5.70;;
57551;SDS011;43379;48.160;14.036;2023-03-21T12:48:14;5.67;;;5.10;;
57551;SDS011;43379;48.160;14.036;2023-03-21T12:50:50;6.60;;;6.00;;
57551;SDS011;43379;48.160;14.036;2023-03-21T12:53:26;6.47;;;5.97;;
57551;SDS011;43379;48.160;14.036;2023-03-21T12:56:00;7.27;;;6.43;;
57551;SDS011;43379;48.160;14.036;2023-03-21T12:58:33;7.20;;;6.30;;
57551;SDS011;43379;48.160;14.036;2023-03-21T13:01:11;4.90;;;4.50;;
57551;SDS011;43379;48.160;14.036;2023-03-21T13:03:41;5.40;;;5.00;;
57551;SDS011;43379;48.160;14.036;2023-03-21T13:06:12;5.20;;;4.80;;
57551;SDS011;43379;48.160;14.036;2023-03-21T13:11:09;5.70;;;5.30;;
57551;SDS011;43379;48.160;14.036;2023-03-21T13:13:43;5.30;;;4.90;;
57551;SDS011;43379;48.160;14.036;2023-03-21T13:16:36;5.60;;;5.07;;
57551;SDS011;43379;48.160;14.036;2023-03-21T13:27:36;7.27;;;4.77;;
57551;SDS011;43379;48.160;14.036;2023-03-21T13:30:22;5.87;;;5.30;;
57551;SDS011;43379;48.160;14.036;2023-03-21T13:32:50;5.63;;;5.10;;
57551;SDS011;43379;48.160;14.036;2023-03-21T13:35:40;5.13;;;4.73;;
57551;SDS011;43379;48.160;14.036;2023-03-21T13:38:26;6.10;;;5.50;;
57551;SDS011;43379;48.160;14.036;2023-03-21T13:41:00;5.00;;;4.60;;
57551;SDS011;43379;48.160;14.036;2023-03-21T13:43:54;7.30;;;6.57;;
57551;SDS011;43379;48.160;14.036;2023-03-21T13:48:56;6.57;;;6.17;;
57551;SDS011;43379;48.160;14.036;2023-03-21T13:51:53;6.13;;;5.63;;
57551;SDS011;43379;48.160;14.036;2023-03-21T13:55:13;6.40;;;5.80;;
57551;SDS011;43379;48.160;14.036;2023-03-21T13:57:36;5.67;;;5.27;;
57551;SDS011;43379;48.160;14.036;2023-03-21T14:03:12;6.17;;;5.67;;
57551;SDS011;43379;48.160;14.036;2023-03-21T14:05:42;5.97;;;5.47;;
57551;SDS011;43379;48.160;14.036;2023-03-21T14:08:17;6.17;;;5.77;;
57551;SDS011;43379;48.160;14.036;2023-03-21T14:10:45;4.90;;;4.50;;
57551;SDS011;43379;48.160;14.036;2023-03-21T14:13:16;6.40;;;5.80;;
57551;SDS011;43379;48.160;14.036;2023-03-21T14:15:49;5.30;;;4.90;;
57551;SDS011;43379;48.160;14.036;2023-03-21T14:18:21;4.57;;;4.20;;
57551;SDS011;43379;48.160;14.036;2023-03-21T14:20:52;5.93;;;5.43;;
57551;SDS011;43379;48.160;14.036;2023-03-21T14:23:22;6.47;;;5.90;;
57551;SDS011;43379;48.160;14.036;2023-03-21T14:25:48;4.97;;;4.57;;
57551;SDS011;43379;48.160;14.036;2023-03-21T14:28:24;5.43;;;5.03;;
57551;SDS011;43379;48.160;14.036;2023-03-21T14:30:53;5.70;;;5.20;;
57551;SDS011;43379;48.160;14.036;2023-03-21T14:33:34;5.47;;;5.07;;
57551;SDS011;43379;48.160;14.036;2023-03-21T14:36:04;6.20;;;5.70;;
57551;SDS011;43379;48.160;14.036;2023-03-21T14:38:35;6.53;;;5.93;;
57551;SDS011;43379;48.160;14.036;2023-03-21T14:41:02;6.00;;;5.50;;
57551;SDS011;43379;48.160;14.036;2023-03-21T14:43:28;7.20;;;5.73;;
57551;SDS011;43379;48.160;14.036;2023-03-21T14:45:58;8.83;;;6.53;;
57551;SDS011;43379;48.160;14.036;2023-03-21T14:48:42;5.73;;;5.33;;
57551;SDS011;43379;48.160;14.036;2023-03-21T14:51:09;6.33;;;5.13;;
57551;SDS011;43379;48.160;14.036;2023-03-21T14:53:40;6.03;;;5.57;;
57551;SDS011;43379;48.160;14.036;2023-03-21T14:58:38;5.60;;;5.17;;
57551;SDS011;43379;48.160;14.036;2023-03-21T15:01:06;5.80;;;5.30;;
57551;SDS011;43379;48.160;14.036;2023-03-21T15:03:44;6.30;;;5.90;;
57551;SDS011;43379;48.160;14.036;2023-03-21T15:06:12;6.93;;;6.33;;
57551;SDS011;43379;48.160;14.036;2023-03-21T15:08:38;6.63;;;6.13;;
57551;SDS011;43379;48.160;14.036;2023-03-21T15:11:05;5.63;;;5.23;;
57551;SDS011;43379;48.160;14.036;2023-03-21T15:16:07;6.67;;;6.17;;
57551;SDS011;43379;48.160;14.036;2023-03-21T15:18:36;6.80;;;5.43;;
57551;SDS011;43379;48.160;14.036;2023-03-21T15:21:12;6.07;;;5.57;;
57551;SDS011;43379;48.160;14.036;2023-03-21T15:23:47;6.33;;;5.83;;
57551;SDS011;43379;48.160;14.036;2023-03-21T15:26:20;5.10;;;4.70;;
57551;SDS011;43379;48.160;14.036;2023-03-21T15:28:49;6.70;;;6.03;;
57551;SDS011;43379;48.160;14.036;2023-03-21T15:31:21;6.50;;;6.00;;
57551;SDS011;43379;48.160;14.036;2023-03-21T15:33:50;6.97;;;6.37;;
57551;SDS011;43379;48.160;14.036;2023-03-21T15:36:18;7.20;;;6.70;;
57551;SDS011;43379;48.160;14.036;2023-03-21T15:38:46;6.53;;;6.03;;
57551;SDS011;43379;48.160;14.036;2023-03-21T15:41:34;7.37;;;6.87;;
57551;SDS011;43379;48.160;14.036;2023-03-21T15:46:38;7.63;;;6.93;;
57551;SDS011;43379;48.160;14.036;2023-03-21T15:54:19;7.30;;;6.70;;
57551;SDS011;43379;48.160;14.036;2023-03-21T15:57:03;6.63;;;6.07;;
57551;SDS011;43379;48.160;14.036;2023-03-21T15:59:40;8.77;;;8.00;;
57551;SDS011;43379;48.160;14.036;2023-03-21T16:02:18;7.27;;;6.67;;
57551;SDS011;43379;48.160;14.036;2023-03-21T16:04:56;7.70;;;7.00;;
57551;SDS011;43379;48.160;14.036;2023-03-21T16:07:26;8.07;;;7.37;;
57551;SDS011;43379;48.160;14.036;2023-03-21T16:09:56;7.47;;;6.77;;
57551;SDS011;43379;48.160;14.036;2023-03-21T16:12:24;8.20;;;6.90;;
57551;SDS011;43379;48.160;14.036;2023-03-21T16:14:49;7.93;;;7.13;;
57551;SDS011;43379;48.160;14.036;2023-03-21T16:19:47;7.50;;;6.90;;
57551;SDS011;43379;48.160;14.036;2023-03-21T16:22:13;7.47;;;6.90;;
57551;SDS011;43379;48.160;14.036;2023-03-21T16:24:39;7.93;;;7.03;;
57551;SDS011;43379;48.160;14.036;2023-03-21T16:27:05;8.10;;;7.40;;
57551;SDS011;43379;48.160;14.036;2023-03-21T16:29:30;8.47;;;7.73;;
57551;SDS011;43379;48.160;14.036;2023-03-21T16:31:56;8.97;;;8.17;;
57551;SDS011;43379;48.160;14.036;2023-03-21T16:34:22;8.30;;;7.60;;
57551;SDS011;43379;48.160;14.036;2023-03-21T16:36:47;7.03;;;6.40;;
57551;SDS011;43379;48.160;14.036;2023-03-21T16:39:17;9.80;;;8.00;;
57551;SDS011;43379;48.160;14.036;2023-03-21T16:41:45;8.70;;;7.90;;
57551;SDS011;43379;48.160;14.036;2023-03-21T16:44:20;10.30;;;7.37;;
57551;SDS011;43379;48.160;14.036;2023-03-21T16:46:46;8.80;;;8.00;;
57551;SDS011;43379;48.160;14.036;2023-03-21T16:49:19;7.73;;;6.43;;
57551;SDS011;43379;48.160;14.036;2023-03-21T16:51:50;9.83;;;8.30;;
57551;SDS011;43379;48.160;14.036;2023-03-21T16:54:16;9.20;;;7.17;;
57551;SDS011;43379;48.160;14.036;2023-03-21T16:56:43;8.93;;;6.27;;
57551;SDS011;43379;48.160;14.036;2023-03-21T16:59:12;8.30;;;7.50;;
57551;SDS011;43379;48.160;14.036;2023-03-21T17:01:38;12.00;;;7.80;;
57551;SDS011;43379;48.160;14.036;2023-03-21T17:04:05;10.33;;;6.97;;